Time;durP1;ratioP1;P1;durP2;ratioP2;P2;SDS_P1;SDS_P2;PMS_P1;PMS_P2;Temp;Humidity;BMP_temperature;BMP_pressure;BME280_temperature;BME280_humidity;BME280_pressure;Samples;Min_cycle;Max_cycle;Signal;HPM_P1;HPM_P2
2023/01/20 00:01:49;;;;;;;24.12;6.92;;;;;;;8.83;100.00;99711.07;1766987;80;21112;-60
2023/01/20 00:04:18;;;;;;;24.55;7.25;;;;;;;8.83;100.00;99692.47;1766737;80;21163;-60
2023/01/20 00:06:46;;;;;;;19.80;7.05;;;;;;;8.83;100.00;99692.47;1766864;81;21115;-60
2023/01/20 00:09:16;;;;;;;23.40;7.75;;;;;;;8.82;100.00;99697.09;1766963;81;21116;-59
2023/01/20 00:11:45;;;;;;;24.10;7.30;;;;;;;8.82;100.00;99696.25;1766943;81;21139;-59
2023/01/20 00:14:15;;;;;;;31.10;8.53;;;;;;;8.82;100.00;99696.25;1766774;81;21147;-61
2023/01/20 00:16:43;;;;;;;26.70;6.90;;;;;;;8.82;100.00;99699.83;1766937;81;21130;-59
2023/01/20 00:19:13;;;;;;;24.10;7.08;;;;;;;8.84;100.00;99703.72;1767129;81;21629;-60
2023/01/20 00:21:42;;;;;;;24.05;7.47;;;;;;;8.84;100.00;99706.45;1766886;81;21155;-61
2023/01/20 00:24:12;;;;;;;27.90;7.47;;;;;;;8.84;100.00;99708.66;1767121;81;21935;-60
2023/01/20 00:26:40;;;;;;;24.10;7.35;;;;;;;8.83;100.00;99700.66;1767181;81;21123;-59
2023/01/20 00:29:09;;;;;;;25.55;7.10;;;;;;;8.84;100.00;99705.92;1766602;81;21143;-59
2023/01/20 00:31:38;;;;;;;29.65;7.20;;;;;;;8.84;100.00;99705.92;1766981;81;21112;-60
2023/01/20 00:34:09;;;;;;;27.07;6.92;;;;;;;8.85;100.00;99707.61;1766784;80;21120;-61
2023/01/20 00:36:38;;;;;;;25.75;7.58;;;;;;;8.85;100.00;99704.88;1766808;81;21159;-59
2023/01/20 00:39:06;;;;;;;25.80;6.67;;;;;;;8.86;100.00;99712.03;1766741;81;21139;-60
2023/01/20 00:41:36;;;;;;;26.42;7.08;;;;;;;8.88;100.00;99707.73;1766713;81;21084;-59
2023/01/20 00:44:05;;;;;;;26.85;7.92;;;;;;;8.89;100.00;99710.25;1766646;81;21166;-61
2023/01/20 00:46:34;;;;;;;26.95;7.85;;;;;;;8.91;100.00;99712.78;1773654;80;21081;-61
2023/01/20 00:49:03;;;;;;;30.72;7.60;;;;;;;8.91;100.00;99707.31;1769392;80;21551;-60
2023/01/20 00:51:32;;;;;;;25.40;6.85;;;;;;;8.90;100.00;99718.77;1767045;80;21159;-61
2023/01/20 00:54:01;;;;;;;22.58;6.37;;;;;;;8.90;100.00;99719.29;1766799;80;21139;-59
2023/01/20 00:56:30;;;;;;;26.93;6.83;;;;;;;8.90;100.00;99722.02;1766833;80;21084;-61
2023/01/20 00:59:00;;;;;;;27.90;7.15;;;;;;;8.89;100.00;99721.70;1767063;80;21155;-60
2023/01/20 01:01:29;;;;;;;25.12;6.70;;;;;;;8.87;100.00;99712.87;1767000;81;21108;-60
2023/01/20 01:03:58;;;;;;;36.00;7.65;;;;;;;8.85;100.00;99708.98;1767112;81;21628;-60
2023/01/20 01:06:28;;;;;;;19.57;6.45;;;;;;;8.84;100.00;99702.35;1767013;81;21753;-59
2023/01/20 01:08:58;;;;;;;22.52;6.42;;;;;;;8.83;100.00;99702.88;1766970;81;21104;-61
2023/01/20 01:11:27;;;;;;;23.87;6.90;;;;;;;8.82;100.00;99700.34;1766806;81;21116;-60
2023/01/20 01:13:56;;;;;;;20.82;6.53;;;;;;;8.80;100.00;99701.91;1767165;81;21198;-60
2023/01/20 01:16:25;;;;;;;30.90;7.50;;;;;;;8.79;100.00;99696.13;1767075;80;21148;-60
2023/01/20 01:18:54;;;;;;;26.55;6.92;;;;;;;8.77;100.00;99688.66;1767164;81;21109;-59
2023/01/20 01:21:23;;;;;;;25.45;7.28;;;;;;;8.74;100.00;99695.91;1766828;81;21112;-61
2023/01/20 01:23:52;;;;;;;25.75;8.08;;;;;;;8.72;100.00;99691.69;1766714;81;21612;-59
2023/01/20 01:26:22;;;;;;;24.02;7.05;;;;;;;8.71;100.00;99699.56;1766886;80;21108;-60
2023/01/20 01:28:52;;;;;;;28.50;6.92;;;;;;;8.69;100.00;99701.66;1766923;81;21116;-61
2023/01/20 01:31:23;;;;;;;30.82;7.22;;;;;;;8.69;100.00;99699.77;1767138;80;21112;-60
2023/01/20 01:33:52;;;;;;;26.37;7.40;;;;;;;8.68;100.00;99701.33;1767136;81;21163;-60
2023/01/20 01:36:21;;;;;;;28.15;7.42;;;;;;;8.67;100.00;99708.68;1768248;80;21152;-60
2023/01/20 01:38:49;;;;;;;29.67;7.67;;;;;;;8.68;100.00;99709.52;1769898;81;21162;-60
2023/01/20 01:41:20;;;;;;;26.55;6.83;;;;;;;8.68;100.00;99702.70;1767416;80;21128;-59
2023/01/20 01:44:09;;;;;;;21.52;6.95;;;;;;;8.66;100.00;99708.36;1766935;81;21100;-59
2023/01/20 01:46:39;;;;;;;23.70;6.50;;;;;;;8.66;100.00;99704.79;1772328;80;21127;-60
2023/01/20 01:49:16;;;;;;;28.10;7.35;;;;;;;8.62;100.00;99712.55;1776489;80;21107;-59
2023/01/20 01:51:56;;;;;;;23.38;6.55;;;;;;;8.61;100.00;99703.19;1729453;82;21198;-59
2023/01/20 01:54:37;;;;;;;27.77;7.37;;;;;;;8.58;100.00;99703.91;1691951;85;21133;-60
2023/01/20 01:57:06;;;;;;;24.63;6.72;;;;;;;8.57;100.00;99713.15;1691934;85;21183;-60
2023/01/20 01:59:35;;;;;;;21.42;6.83;;;;;;;8.56;100.00;99713.34;1729383;83;21211;-61
2023/01/20 02:02:03;;;;;;;20.85;6.70;;;;;;;8.55;100.00;99711.14;1692094;85;21133;-61
2023/01/20 02:04:33;;;;;;;25.20;6.40;;;;;;;8.54;100.00;99701.27;1729433;83;21179;-60
2023/01/20 02:07:14;;;;;;;29.10;6.50;;;;;;;8.54;100.00;99705.88;1692404;85;21554;-60
2023/01/20 02:09:44;;;;;;;23.47;6.12;;;;;;;8.52;100.00;99707.97;1729489;83;21845;-60
2023/01/20 02:12:17;;;;;;;20.88;6.35;;;;;;;8.51;100.00;99713.95;1735074;83;21143;-61
2023/01/20 02:14:53;;;;;;;26.05;6.03;;;;;;;8.49;100.00;99705.13;1732722;83;21119;-60
2023/01/20 02:17:33;;;;;;;23.42;6.47;;;;;;;8.48;100.00;99711.63;1692141;85;21568;-59
2023/01/20 02:20:17;;;;;;;23.25;6.20;;;;;;;8.46;100.00;99712.34;1690658;85;21156;-60
2023/01/20 02:23:27;;;;;;;21.62;5.95;;;;;;;8.43;100.00;99714.61;1668074;85;22199;-61
2023/01/20 02:26:02;;;;;;;28.55;6.62;;;;;;;8.39;100.00;99714.69;1729384;83;21128;-61
2023/01/20 02:29:07;;;;;;;18.50;6.05;;;;;;;8.33;100.00;99719.55;1694727;84;21539;-59
2023/01/20 02:32:10;;;;;;;22.37;6.37;;;;;;;8.28;100.00;99720.15;1621568;87;21179;-60
2023/01/20 02:35:00;;;;;;;24.45;6.80;;;;;;;8.24;100.00;99725.69;1763914;80;21148;-59
2023/01/20 02:38:05;;;;;;;26.57;6.47;;;;;;;8.20;100.00;99727.13;1776273;81;21174;-60
2023/01/20 02:40:49;;;;;;;25.30;6.90;;;;;;;8.17;100.00;99724.27;1772685;81;21116;-60
2023/01/20 02:43:23;;;;;;;29.32;6.60;;;;;;;8.13;100.00;99728.96;1769109;81;21570;-61
2023/01/20 02:45:58;;;;;;;21.62;6.03;;;;;;;8.11;100.00;99743.33;1770540;81;21553;-59
2023/01/20 02:48:48;;;;;;;20.75;6.30;;;;;;;8.09;100.00;99752.22;1662064;84;21167;-59
2023/01/20 02:51:26;;;;;;;24.02;6.58;;;;;;;8.06;100.00;99759.44;1738946;82;21147;-59
2023/01/20 02:54:00;;;;;;;23.98;7.12;;;;;;;8.02;100.00;99750.81;1724899;83;21164;-59
2023/01/20 02:56:29;;;;;;;22.60;6.35;;;;;;;7.99;100.00;99748.48;1704750;84;21203;-60
2023/01/20 02:59:05;;;;;;;23.67;6.33;;;;;;;7.98;100.00;99735.88;1730651;83;21150;-59
2023/01/20 03:01:41;;;;;;;21.60;7.00;;;;;;;7.98;100.00;99759.06;1719723;83;21148;-59
2023/01/20 03:04:11;;;;;;;25.20;6.67;;;;;;;7.98;100.00;99762.31;1730831;83;21147;-59
2023/01/20 03:06:43;;;;;;;26.15;6.62;;;;;;;7.97;100.00;99760.62;1719407;83;21195;-59
2023/01/20 03:09:15;;;;;;;22.80;6.92;;;;;;;7.94;100.00;99753.67;1730556;83;21143;-60
2023/01/20 03:11:49;;;;;;;23.00;6.47;;;;;;;7.94;100.00;99755.88;1701292;83;21240;-59
2023/01/20 03:14:18;;;;;;;30.30;6.85;;;;;;;7.94;100.00;99764.59;1766861;81;21198;-60
2023/01/20 03:16:49;;;;;;;19.87;6.78;;;;;;;7.92;100.00;99762.06;1766985;81;21108;-59
2023/01/20 03:19:18;;;;;;;30.57;7.65;;;;;;;7.92;100.00;99768.03;1766810;80;21164;-60
2023/01/20 03:21:48;;;;;;;23.25;6.58;;;;;;;7.92;100.00;99772.97;1766972;81;21183;-58
2023/01/20 03:24:17;;;;;;;23.62;7.00;;;;;;;7.90;100.00;99770.11;1767236;81;21159;-59
2023/01/20 03:26:46;;;;;;;23.52;6.80;;;;;;;7.85;100.00;99782.97;1766709;81;21080;-58
2023/01/20 03:29:17;;;;;;;22.73;7.37;;;;;;;7.80;100.00;99787.29;1766811;80;21112;-60
2023/01/20 03:31:55;;;;;;;24.65;7.47;;;;;;;7.75;100.00;99791.12;1766858;81;21136;-60
2023/01/20 03:34:25;;;;;;;23.65;6.55;;;;;;;7.72;100.00;99790.15;1767252;81;21112;-60
2023/01/20 03:36:54;;;;;;;22.90;6.55;;;;;;;7.71;100.00;99794.76;1766758;81;21143;-60
2023/01/20 03:39:23;;;;;;;24.47;7.28;;;;;;;7.71;100.00;99793.39;1766908;81;21108;-60
2023/01/20 03:42:09;;;;;;;23.95;6.33;;;;;;;7.72;100.00;99792.88;1766801;81;21155;-59
2023/01/20 03:45:02;;;;;;;24.67;6.80;;;;;;;7.72;100.00;99801.90;1767066;81;21112;-61
2023/01/20 03:47:52;;;;;;;23.95;6.70;;;;;;;7.72;100.00;99803.27;1775891;81;21147;-59
2023/01/20 03:50:38;;;;;;;24.87;6.65;;;;;;;7.70;100.00;99793.59;1773201;81;21140;-60
2023/01/20 03:53:29;;;;;;;20.50;6.33;;;;;;;7.70;100.00;99792.22;1772462;81;21135;-59
2023/01/20 03:56:13;;;;;;;20.30;6.28;;;;;;;7.70;100.00;99788.13;1772191;81;21144;-58
2023/01/20 03:58:44;;;;;;;25.00;6.45;;;;;;;7.71;100.00;99792.03;1761552;81;21571;-60
2023/01/20 04:01:13;;;;;;;23.50;7.45;;;;;;;7.70;100.00;99794.43;1771925;81;21175;-59
2023/01/20 04:03:46;;;;;;;21.77;6.75;;;;;;;7.70;100.00;99797.16;1771830;80;21144;-60
2023/01/20 04:06:16;;;;;;;22.40;7.00;;;;;;;7.71;100.00;99804.82;1771986;81;21174;-61
2023/01/20 04:08:52;;;;;;;23.65;7.20;;;;;;;7.72;100.00;99807.35;1761527;79;21155;-59
2023/01/20 04:11:25;;;;;;;23.60;6.78;;;;;;;7.73;100.00;99808.20;1772058;81;21151;-59
2023/01/20 04:13:54;;;;;;;21.77;6.40;;;;;;;7.71;100.00;99807.03;1772034;81;21139;-60
2023/01/20 04:16:23;;;;;;;20.40;6.83;;;;;;;7.69;100.00;99820.01;1772278;81;21088;-60
2023/01/20 04:18:52;;;;;;;22.75;5.90;;;;;;;7.67;100.00;99813.06;1772020;81;21127;-60
2023/01/20 04:21:42;;;;;;;24.57;6.40;;;;;;;7.62;100.00;99825.39;1772169;81;21625;-59
2023/01/20 04:24:28;;;;;;;20.48;5.85;;;;;;;7.60;100.00;99837.00;1772029;81;21216;-59
2023/01/20 04:26:56;;;;;;;20.27;6.72;;;;;;;7.60;100.00;99851.16;1771510;80;21573;-59
2023/01/20 04:29:27;;;;;;;25.82;6.83;;;;;;;7.56;100.00;99854.78;1771981;81;21139;-60
2023/01/20 04:32:00;;;;;;;23.35;5.92;;;;;;;7.56;100.00;99860.75;1772102;81;21515;-60
2023/01/20 04:34:30;;;;;;;20.88;5.75;;;;;;;7.52;100.00;99864.90;1772196;81;21135;-59
2023/01/20 04:36:58;;;;;;;21.45;5.53;;;;;;;7.49;100.00;99862.04;1772350;81;21135;-59
2023/01/20 04:39:27;;;;;;;25.88;6.85;;;;;;;7.46;100.00;99854.24;1772034;81;21558;-60
2023/01/20 04:41:57;;;;;;;25.05;6.65;;;;;;;7.46;100.00;99865.14;1771963;81;21191;-59
2023/01/20 04:44:26;;;;;;;20.45;6.92;;;;;;;7.43;100.00;99856.50;1772071;81;21179;-60
2023/01/20 04:46:58;;;;;;;26.10;6.50;;;;;;;7.42;100.00;99861.63;1773737;80;21112;-60
2023/01/20 04:49:27;;;;;;;20.77;5.60;;;;;;;7.42;100.00;99867.92;1768939;81;21127;-61
2023/01/20 04:51:55;;;;;;;20.43;5.70;;;;;;;7.40;100.00;99868.64;1766926;81;21167;-59
2023/01/20 04:54:24;;;;;;;22.35;5.92;;;;;;;7.40;100.00;99869.16;1766850;81;21579;-60
2023/01/20 04:56:53;;;;;;;20.72;6.08;;;;;;;7.39;100.00;99867.47;1766804;81;21120;-62
2023/01/20 04:59:23;;;;;;;22.02;5.72;;;;;;;7.38;100.00;99886.22;1766977;81;21123;-59
2023/01/20 05:01:52;;;;;;;16.45;5.25;;;;;;;7.33;100.00;99888.14;1766997;81;21131;-60
2023/01/20 05:04:23;;;;;;;16.90;5.62;;;;;;;7.33;100.00;99892.75;1767042;81;21423;-60
2023/01/20 05:06:52;;;;;;;16.27;6.47;;;;;;;7.32;100.00;99910.98;1766850;81;21191;-60
2023/01/20 05:09:22;;;;;;;20.30;5.37;;;;;;;7.31;100.00;99910.13;1767143;81;21155;-59
2023/01/20 05:11:50;;;;;;;16.40;5.35;;;;;;;7.33;100.00;99907.73;1766852;81;21524;-60
2023/01/20 05:14:20;;;;;;;21.68;5.83;;;;;;;7.31;100.00;99911.50;1766880;80;21136;-60
2023/01/20 05:16:50;;;;;;;19.23;5.70;;;;;;;7.31;100.00;99910.13;1766904;81;21116;-59
2023/01/20 05:19:19;;;;;;;20.95;5.83;;;;;;;7.33;100.00;99907.73;1766788;81;21119;-60
2023/01/20 05:21:48;;;;;;;20.15;6.25;;;;;;;7.33;100.00;99903.13;1766979;80;21159;-59
2023/01/20 05:24:17;;;;;;;20.72;6.25;;;;;;;7.34;100.00;99913.00;1766851;81;21144;-59
2023/01/20 05:26:46;;;;;;;21.82;5.47;;;;;;;7.33;100.00;99921.36;1767036;80;21088;-60
2023/01/20 05:29:15;;;;;;;18.55;5.60;;;;;;;7.33;100.00;99930.38;1766797;81;21112;-59
2023/01/20 05:31:44;;;;;;;18.50;6.08;;;;;;;7.31;100.00;99938.75;1766757;81;21235;-59
2023/01/20 05:34:15;;;;;;;17.48;5.45;;;;;;;7.29;100.00;99927.19;1766766;81;21132;-60
2023/01/20 05:36:45;;;;;;;15.65;5.42;;;;;;;7.29;100.00;99927.70;1766789;80;21160;-59
2023/01/20 05:39:15;;;;;;;17.82;5.62;;;;;;;7.27;100.00;99929.26;1766864;81;21116;-59
2023/01/20 05:41:45;;;;;;;19.23;6.12;;;;;;;7.26;100.00;99924.84;1766870;81;21544;-60
2023/01/20 05:44:15;;;;;;;18.17;5.87;;;;;;;7.26;100.00;99918.55;1767109;81;21147;-59
2023/01/20 05:46:44;;;;;;;23.85;6.40;;;;;;;7.27;100.00;99928.41;1769462;81;21155;-59
2023/01/20 05:49:13;;;;;;;19.82;6.20;;;;;;;7.29;100.00;99937.24;1771286;80;21151;-59
2023/01/20 05:51:42;;;;;;;17.92;6.65;;;;;;;7.28;100.00;99947.30;1770602;81;21139;-59
2023/01/20 05:54:11;;;;;;;17.48;7.95;;;;;;;7.27;100.00;99944.76;1772762;81;21115;-59
2023/01/20 05:56:40;;;;;;;20.90;7.30;;;;;;;7.25;100.00;99949.03;1777401;81;21202;-59
2023/01/20 05:59:10;;;;;;;21.12;7.50;;;;;;;7.25;100.00;99950.40;1774275;81;21136;-59
2023/01/20 06:01:39;;;;;;;21.57;7.25;;;;;;;7.23;100.00;99952.46;1768934;81;21104;-61
2023/01/20 06:04:08;;;;;;;22.25;7.20;;;;;;;7.21;100.00;99951.80;1769113;81;21203;-59
2023/01/20 06:06:38;;;;;;;23.62;7.08;;;;;;;7.18;100.00;99949.97;1777762;80;21206;-60
2023/01/20 06:09:09;;;;;;;15.63;6.00;;;;;;;7.17;100.00;99950.48;1772342;79;21175;-61
2023/01/20 06:11:38;;;;;;;18.50;5.62;;;;;;;7.18;100.00;99939.92;1766504;81;21139;-60
2023/01/20 06:14:08;;;;;;;18.37;6.50;;;;;;;7.19;100.00;99932.08;1766683;81;21144;-61
2023/01/20 06:16:37;;;;;;;20.17;6.60;;;;;;;7.20;100.00;99944.66;1770836;81;21100;-59
2023/01/20 06:19:08;;;;;;;20.60;7.55;;;;;;;7.21;100.00;99954.53;1770558;81;21120;-60
2023/01/20 06:21:38;;;;;;;20.68;7.87;;;;;;;7.19;100.00;99971.58;1766891;80;21084;-58
2023/01/20 06:24:08;;;;;;;21.55;9.20;;;;;;;7.19;100.00;99975.67;1768660;81;21162;-59
2023/01/20 06:26:37;;;;;;;28.15;6.75;;;;;;;7.19;100.00;99965.28;1782715;80;21580;-59
2023/01/20 06:29:06;;;;;;;18.60;7.67;;;;;;;7.14;100.00;99966.33;1782712;79;21115;-58
2023/01/20 06:31:37;;;;;;;22.02;9.45;;;;;;;7.11;100.00;99970.27;1782697;80;21119;-60
2023/01/20 06:34:06;;;;;;;19.82;7.25;;;;;;;7.11;100.00;99973.52;1774074;80;21087;-59
2023/01/20 06:36:35;;;;;;;27.25;9.55;;;;;;;7.10;100.00;99984.08;1771023;81;21591;-60
2023/01/20 06:39:08;;;;;;;24.57;7.25;;;;;;;7.09;100.00;99985.95;1768695;81;21163;-61
2023/01/20 06:41:39;;;;;;;20.37;6.50;;;;;;;7.06;100.00;99989.05;1769585;81;21142;-60
2023/01/20 06:44:08;;;;;;;24.90;6.67;;;;;;;7.06;100.00;99977.31;1771707;81;21087;-59
2023/01/20 06:46:37;;;;;;;23.32;7.37;;;;;;;7.07;100.00;99984.45;1778143;80;21298;-60
2023/01/20 06:49:06;;;;;;;17.70;6.72;;;;;;;7.10;100.00;99993.61;1779747;80;21171;-59
2023/01/20 06:51:35;;;;;;;21.40;6.20;;;;;;;7.10;100.00;99989.02;1772096;81;21139;-59
2023/01/20 06:54:04;;;;;;;24.27;7.78;;;;;;;7.11;100.00;99986.62;1772206;81;21159;-60
2023/01/20 06:56:33;;;;;;;19.95;6.87;;;;;;;7.10;100.00;99979.99;1772150;81;21160;-59
2023/01/20 06:59:03;;;;;;;17.90;7.00;;;;;;;7.08;100.00;99991.08;1771919;81;21143;-60
2023/01/20 07:01:32;;;;;;;23.57;7.25;;;;;;;7.09;100.00;100012.35;1772061;81;21717;-59
2023/01/20 07:04:02;;;;;;;19.70;7.03;;;;;;;7.10;100.00;99997.70;1771982;80;21124;-59
2023/01/20 07:06:34;;;;;;;16.55;6.40;;;;;;;7.09;100.00;100007.75;1772164;81;21148;-60
2023/01/20 07:09:06;;;;;;;18.30;7.40;;;;;;;7.10;100.00;100016.25;1771957;81;21558;-60
2023/01/20 07:11:35;;;;;;;16.23;6.37;;;;;;;7.09;100.00;100020.01;1771798;80;21124;-61
2023/01/20 07:14:04;;;;;;;19.45;6.58;;;;;;;7.12;100.00;100016.06;1771984;81;21383;-59
2023/01/20 07:16:33;;;;;;;20.97;6.30;;;;;;;7.13;100.00;100015.03;1772268;81;21597;-60
2023/01/20 07:19:02;;;;;;;21.25;7.17;;;;;;;7.14;100.00;100016.21;1772095;81;21123;-60
2023/01/20 07:21:32;;;;;;;22.67;8.83;;;;;;;7.16;100.00;100025.08;1772219;80;21586;-60
2023/01/20 07:24:02;;;;;;;22.05;7.42;;;;;;;7.18;100.00;100030.34;1772063;81;21159;-60
2023/01/20 07:26:31;;;;;;;24.20;7.78;;;;;;;7.18;100.00;100023.02;1772069;79;21223;-58
2023/01/20 07:29:00;;;;;;;19.95;7.53;;;;;;;7.20;100.00;100016.02;1772056;81;21100;-61
2023/01/20 07:31:30;;;;;;;24.92;7.83;;;;;;;7.21;100.00;100019.92;1772062;81;21115;-61
2023/01/20 07:34:01;;;;;;;17.87;6.53;;;;;;;7.19;100.00;100022.50;1772194;80;21124;-61
2023/01/20 07:36:29;;;;;;;17.80;7.37;;;;;;;7.18;100.00;100018.93;1772431;81;21719;-60
2023/01/20 07:38:58;;;;;;;17.02;6.30;;;;;;;7.18;100.00;100013.48;1771983;81;21575;-59
2023/01/20 07:41:28;;;;;;;21.27;6.87;;;;;;;7.20;100.00;100014.66;1772107;80;21127;-60
2023/01/20 07:43:57;;;;;;;20.35;7.20;;;;;;;7.20;100.00;100011.42;1772025;79;21136;-61
2023/01/20 07:46:26;;;;;;;21.30;6.47;;;;;;;7.22;100.00;100024.34;1772172;81;21123;-60
2023/01/20 07:48:56;;;;;;;26.07;6.80;;;;;;;7.23;100.00;100023.31;1773796;81;21110;-61
2023/01/20 07:51:25;;;;;;;16.07;6.08;;;;;;;7.25;100.00;100029.94;1767072;81;21155;-61
2023/01/20 07:53:55;;;;;;;23.52;6.58;;;;;;;7.26;100.00;100032.48;1766830;81;21555;-62
2023/01/20 07:56:26;;;;;;;16.30;6.15;;;;;;;7.26;100.00;100028.39;1766938;80;21155;-60
2023/01/20 07:58:57;;;;;;;20.95;7.42;;;;;;;7.28;100.00;100039.10;1767010;81;21088;-62
2023/01/20 08:01:30;;;;;;;18.35;6.50;;;;;;;7.28;100.00;100045.39;1766864;81;21104;-61
2023/01/20 08:04:00;;;;;;;17.27;6.35;;;;;;;7.30;100.00;100048.78;1766709;81;21155;-61
2023/01/20 08:06:30;;;;;;;16.62;5.62;;;;;;;7.35;100.00;100056.92;1756242;81;21112;-61
2023/01/20 08:09:01;;;;;;;16.65;6.70;;;;;;;7.35;100.00;100054.19;1766897;81;21108;-60
2023/01/20 08:11:31;;;;;;;17.07;7.30;;;;;;;7.33;100.00;100060.34;1766855;81;21111;-61
2023/01/20 08:14:00;;;;;;;18.42;6.35;;;;;;;7.34;100.00;100048.41;1766959;80;21112;-61
2023/01/20 08:16:30;;;;;;;15.93;5.62;;;;;;;7.37;100.00;100052.98;1766954;81;21151;-61
2023/01/20 08:18:59;;;;;;;19.60;5.90;;;;;;;7.43;100.00;100060.92;1766882;80;21159;-60
2023/01/20 08:21:30;;;;;;;19.30;6.28;;;;;;;7.44;100.00;100057.17;1766964;80;21119;-61
2023/01/20 08:24:01;;;;;;;20.15;7.08;;;;;;;7.49;100.00;100056.09;1767118;81;21104;-62
2023/01/20 08:26:31;;;;;;;19.07;6.30;;;;;;;7.53;100.00;100056.05;1766851;81;21585;-61
2023/01/20 08:29:07;;;;;;;17.90;6.12;;;;;;;7.56;100.00;100055.16;1766772;80;21536;-61
2023/01/20 08:31:37;;;;;;;18.15;5.65;;;;;;;7.60;100.00;100055.12;1767098;81;21180;-61
2023/01/20 08:34:06;;;;;;;22.62;6.58;;;;;;;7.64;100.00;100049.62;1766966;81;21139;-61
2023/01/20 08:36:36;;;;;;;21.15;6.15;;;;;;;7.68;100.00;100054.18;1767102;80;21504;-61
2023/01/20 08:39:09;;;;;;;15.03;5.92;;;;;;;7.74;100.00;100045.25;1756172;81;21159;-61
2023/01/20 08:41:38;;;;;;;21.40;7.08;;;;;;;7.81;100.00;100049.47;1766864;80;21104;-62
2023/01/20 08:44:07;;;;;;;21.15;7.42;;;;;;;7.86;100.00;100057.41;1766898;81;21532;-60
2023/01/20 08:46:37;;;;;;;22.00;8.48;;;;;;;7.92;100.00;100052.56;1767056;80;21135;-62
2023/01/20 08:49:14;;;;;;;26.50;10.95;;;;;;;7.98;100.00;100045.50;1758541;81;21092;-63
2023/01/20 08:51:44;;;;;;;25.75;9.68;;;;;;;8.03;100.00;100047.14;1769544;81;21179;-60
2023/01/20 08:54:14;;;;;;;25.50;8.78;;;;;;;8.07;100.00;100044.88;1772695;81;21170;-63
2023/01/20 08:56:43;;;;;;;21.07;7.92;;;;;;;8.10;100.00;100043.13;1777537;80;21143;-62
2023/01/20 08:59:13;;;;;;;20.30;7.87;;;;;;;8.12;99.82;100049.25;1777416;81;21410;-63
2023/01/20 09:01:43;;;;;;;19.62;8.08;;;;;;;8.14;99.67;100048.53;1777499;81;21162;-63
2023/01/20 09:04:12;;;;;;;24.50;7.53;;;;;;;8.15;99.48;100040.16;1777485;80;21344;-63
2023/01/20 09:06:45;;;;;;;15.95;6.87;;;;;;;8.17;99.33;100034.52;1777610;80;21124;-65
2023/01/20 09:09:15;;;;;;;22.02;7.55;;;;;;;8.20;99.23;100039.59;1777629;81;21135;-64
2023/01/20 09:11:49;;;;;;;19.32;7.28;;;;;;;8.22;99.13;100045.18;1777779;80;21120;-63
2023/01/20 09:14:21;;;;;;;23.15;8.03;;;;;;;8.25;99.02;100037.97;1774472;80;21175;-63
2023/01/20 09:16:50;;;;;;;20.95;7.25;;;;;;;8.27;98.85;100030.95;1766625;81;21135;-63
2023/01/20 09:19:20;;;;;;;24.98;7.55;;;;;;;8.29;98.70;100037.07;1769748;80;21121;-64
2023/01/20 09:21:49;;;;;;;21.60;7.97;;;;;;;8.31;98.72;100044.55;1777503;80;21543;-64
2023/01/20 09:24:19;;;;;;;29.57;8.80;;;;;;;8.34;98.61;100038.73;1770687;81;21104;-64
2023/01/20 09:26:52;;;;;;;20.23;7.80;;;;;;;8.36;98.56;100039.39;1775898;80;21170;-63
2023/01/20 09:29:22;;;;;;;23.07;8.05;;;;;;;8.39;98.55;100040.89;1771354;81;21108;-64
2023/01/20 09:31:57;;;;;;;22.60;8.20;;;;;;;8.41;98.54;100038.30;1757181;81;21143;-64
2023/01/20 09:34:34;;;;;;;20.55;8.05;;;;;;;8.44;98.46;100043.37;1776518;80;21136;-64
2023/01/20 09:46:32;;;;;;;18.30;7.35;;;;;;;8.63;97.92;100052.00;1758337;80;21110;-62
2023/01/20 09:55:49;;;;;;;25.15;7.72;;;;;;;8.75;97.50;100044.98;1754670;81;21118;-64
2023/01/20 09:58:44;;;;;;;17.77;7.00;;;;;;;8.79;97.31;100050.39;1749685;80;21172;-63
2023/01/20 10:01:50;;;;;;;24.12;7.72;;;;;;;8.81;97.16;100049.16;1769383;80;21139;-63
2023/01/20 10:07:38;;;;;;;20.60;8.05;;;;;;;8.88;96.88;100058.26;1630193;87;21234;-66
2023/01/20 10:10:26;;;;;;;21.97;7.25;;;;;;;8.91;96.74;100057.02;1635965;88;21128;-63
2023/01/20 10:13:15;;;;;;;20.37;7.47;;;;;;;8.91;96.24;100057.02;1630535;88;21154;-63
2023/01/20 10:15:50;;;;;;;24.30;9.93;;;;;;;8.92;96.25;100066.91;1637113;87;21242;-65
2023/01/20 10:18:44;;;;;;;19.60;7.50;;;;;;;8.96;96.24;100062.75;1629897;88;21164;-65
2023/01/20 10:21:23;;;;;;;20.68;7.20;;;;;;;8.98;96.12;100054.35;1630642;87;21153;-63
2023/01/20 10:24:02;;;;;;;14.83;5.20;;;;;;;9.01;95.90;100046.61;1637226;87;21145;-63
2023/01/20 10:27:04;;;;;;;22.82;7.12;;;;;;;9.04;95.87;100040.75;1607686;88;21208;-64
2023/01/20 10:30:05;;;;;;;20.77;7.08;;;;;;;9.08;95.71;100040.68;1637718;87;21158;-62
2023/01/20 10:32:49;;;;;;;20.05;7.22;;;;;;;9.16;95.71;100041.94;1555368;92;21213;-65
2023/01/20 10:35:27;;;;;;;;;;;;;;;9.23;95.38;100044.73;1563060;92;21213;-63
2023/01/20 10:38:00;;;;;;;19.57;7.12;;;;;;;9.28;95.09;100051.81;1567368;91;20176;-63
2023/01/20 10:40:56;;;;;;;18.37;6.78;;;;;;;9.33;94.96;100052.58;1598555;88;21197;-65
2023/01/20 10:43:29;;;;;;;22.58;8.30;;;;;;;9.37;94.76;100051.98;1630538;88;21786;-65
2023/01/20 10:46:22;;;;;;;22.35;7.42;;;;;;;9.44;94.58;100047.41;1629606;88;21218;-64
2023/01/20 10:49:35;;;;;;;16.27;7.40;;;;;;;9.49;94.31;100050.92;1630399;88;21628;-67
2023/01/20 10:52:16;;;;;;;19.90;7.25;;;;;;;9.54;94.04;100045.70;1714439;84;21153;-63
2023/01/20 10:55:33;;;;;;;20.17;7.80;;;;;;;9.62;93.84;100050.16;1714421;83;21109;-67
2023/01/20 10:58:28;;;;;;;21.70;8.20;;;;;;;9.68;93.64;100045.27;1683657;83;21111;-65
2023/01/20 11:01:11;;;;;;;19.02;7.08;;;;;;;9.74;93.58;100041.72;1685880;85;21143;-65
2023/01/20 11:03:46;;;;;;;17.95;6.83;;;;;;;9.80;92.95;100041.80;1685906;85;21238;-62
2023/01/20 11:06:21;;;;;;;17.75;6.55;;;;;;;9.81;92.75;100042.64;1667902;85;21139;-63
2023/01/20 11:08:50;;;;;;;26.00;7.85;;;;;;;9.83;92.46;100051.49;1714667;84;21169;-64
2023/01/20 11:11:24;;;;;;;20.12;6.67;;;;;;;9.84;92.16;100049.92;1714676;83;21106;-64
2023/01/20 11:13:56;;;;;;;17.42;7.83;;;;;;;9.86;91.99;100049.72;1714371;84;21085;-63
2023/01/20 11:16:28;;;;;;;21.20;7.65;;;;;;;9.85;91.88;100052.98;1714411;83;21114;-63
2023/01/20 11:19:06;;;;;;;;;;;;;;;9.89;92.00;100053.94;1658283;86;21562;-63
2023/01/20 11:21:42;;;;;;;19.67;7.92;;;;;;;9.92;91.75;100053.54;1714477;83;20520;-64
2023/01/20 11:24:42;;;;;;;25.95;8.45;;;;;;;9.98;91.85;100055.47;1691649;84;22002;-64
2023/01/20 11:27:17;;;;;;;19.73;6.58;;;;;;;10.02;91.71;100055.38;1714354;84;21601;-63
2023/01/20 11:30:10;;;;;;;18.27;7.20;;;;;;;10.03;91.29;100061.18;1691398;84;21176;-62
2023/01/20 11:32:41;;;;;;;22.58;8.58;;;;;;;10.06;91.34;100057.52;1713516;83;21185;-63
2023/01/20 11:35:24;;;;;;;20.17;7.47;;;;;;;10.10;91.20;100057.95;1715143;83;21097;-65
2023/01/20 11:37:56;;;;;;;22.80;7.92;;;;;;;10.13;91.15;100057.55;1714431;83;21596;-64
2023/01/20 11:40:32;;;;;;;31.40;13.20;;;;;;;10.15;90.96;100069.14;1714233;84;21137;-64
2023/01/20 11:43:09;;;;;;;33.13;9.93;;;;;;;10.19;90.99;100073.16;1714424;83;21153;-64
2023/01/20 11:45:39;;;;;;;33.28;10.95;;;;;;;10.23;90.97;100064.05;1668161;84;21102;-63
2023/01/20 11:48:16;;;;;;;26.90;11.50;;;;;;;10.27;90.71;100066.70;1714416;84;21137;-64
2023/01/20 11:50:56;;;;;;;23.27;10.13;;;;;;;10.31;90.66;100067.98;1714285;84;21109;-64
2023/01/20 11:53:35;;;;;;;23.30;7.50;;;;;;;10.36;90.56;100075.05;1714411;83;21137;-63
2023/01/20 11:56:18;;;;;;;20.17;8.43;;;;;;;10.39;90.40;100069.16;1714446;84;21252;-63
2023/01/20 11:58:56;;;;;;;17.87;7.00;;;;;;;10.43;90.34;100072.69;1697394;83;21170;-63
2023/01/20 12:01:27;;;;;;;20.20;7.60;;;;;;;10.46;89.86;100081.03;1685886;85;21166;-64
2023/01/20 12:04:11;;;;;;;21.55;7.78;;;;;;;10.46;89.59;100072.81;1656946;86;21187;-63
2023/01/20 12:07:02;;;;;;;17.70;7.53;;;;;;;10.45;89.53;100071.96;1685576;85;21598;-63
2023/01/20 12:09:40;;;;;;;21.23;6.62;;;;;;;10.44;89.41;100082.59;1666374;85;21190;-64
2023/01/20 12:12:16;;;;;;;22.37;7.30;;;;;;;10.46;89.43;100076.92;1687969;85;21531;-63
2023/01/20 12:14:53;;;;;;;31.45;7.92;;;;;;;10.45;89.41;100087.03;1687951;85;21111;-64